Time;durP1;ratioP1;P1;durP2;ratioP2;P2;SDS_P1;SDS_P2;PMS_P1;PMS_P2;Temp;Humidity;BMP_temperature;BMP_pressure;BME280_temperature;BME280_humidity;BME280_pressure;Samples;Min_cycle;Max_cycle;Signal;HPM_P1;HPM_P2
2022/11/18 00:00:52;;;;;;;14.90;8.93;;;;;;;13.15;100.00;97363.84;5012597;28;20118;-95
2022/11/18 00:03:19;;;;;;;16.88;9.68;;;;;;;13.18;100.00;97365.47;5011516;28;20050;-96
2022/11/18 00:05:53;;;;;;;17.63;9.45;;;;;;;13.29;100.00;97381.75;5011866;28;20049;-96
2022/11/18 00:08:23;;;;;;;14.93;9.73;;;;;;;13.18;100.00;97352.13;5018200;28;20046;-95
2022/11/18 00:10:51;;;;;;;14.50;9.63;;;;;;;13.37;100.00;97378.59;5016427;28;20049;-95
2022/11/18 00:16:29;;;;;;;15.55;9.95;;;;;;;13.26;100.00;97365.88;5191073;27;20377;-96
2022/11/18 00:18:55;;;;;;;18.25;10.43;;;;;;;13.22;100.00;97348.31;5186066;27;20046;-95
2022/11/18 00:21:21;;;;;;;15.40;9.88;;;;;;;13.13;100.00;97336.38;5179707;27;20046;-96
2022/11/18 00:23:48;;;;;;;17.98;10.57;;;;;;;13.31;100.00;97363.81;5161900;27;20043;-94
2022/11/18 00:26:14;;;;;;;18.88;10.93;;;;;;;13.30;100.00;97358.59;5167268;27;20046;-94
2022/11/18 00:28:41;;;;;;;16.33;10.88;;;;;;;13.33;100.00;97351.22;5178419;27;20575;-94
2022/11/18 00:31:09;;;;;;;16.02;11.23;;;;;;;13.14;100.00;97326.56;5163877;27;20543;-93
2022/11/18 00:33:37;;;;;;;18.83;11.20;;;;;;;13.27;100.00;97345.38;5179339;27;20038;-94
2022/11/18 00:36:03;;;;;;;18.08;11.60;;;;;;;13.29;100.00;97354.19;5175945;27;20065;-95
2022/11/18 00:38:29;;;;;;;19.13;10.90;;;;;;;13.31;100.00;97352.28;5177440;27;20039;-94
2022/11/18 00:40:59;;;;;;;20.55;11.23;;;;;;;13.20;100.00;97320.00;5181077;27;20054;-95
2022/11/18 00:43:25;;;;;;;16.77;10.95;;;;;;;13.11;100.00;97300.06;5170115;27;20049;-95
2022/11/18 00:45:51;;;;;;;16.27;11.02;;;;;;;13.22;100.00;97324.28;5175243;27;20039;-96
2022/11/18 00:48:20;;;;;;;17.30;11.70;;;;;;;13.17;100.00;97296.19;5176908;27;20057;-94
2022/11/18 00:50:48;;;;;;;22.10;12.15;;;;;;;13.20;100.00;97301.31;5176684;27;20130;-95
2022/11/18 00:53:14;;;;;;;19.45;12.02;;;;;;;13.16;100.00;97297.97;5179666;27;20081;-94
2022/11/18 00:55:40;;;;;;;21.80;11.88;;;;;;;13.25;100.00;97316.13;5178413;27;20039;-95
2022/11/18 00:58:06;;;;;;;21.15;12.85;;;;;;;13.21;100.00;97308.41;5183561;27;20051;-95
2022/11/18 01:00:32;;;;;;;19.95;12.07;;;;;;;13.35;100.00;97335.97;5184541;27;20064;-95
2022/11/18 01:02:58;;;;;;;18.45;11.85;;;;;;;13.17;100.00;97305.03;5182488;27;20042;-94
2022/11/18 01:05:24;;;;;;;20.23;11.50;;;;;;;13.07;100.00;97286.06;5185294;27;20087;-95
2022/11/18 01:07:52;;;;;;;19.10;11.63;;;;;;;13.03;100.00;97289.00;5185070;27;20042;-94
2022/11/18 01:10:18;;;;;;;18.65;11.60;;;;;;;13.03;100.00;97284.50;5175375;27;20070;-94
2022/11/18 01:15:49;;;;;;;23.00;12.35;;;;;;;13.09;100.00;97305.50;5124876;27;20365;-94
2022/11/18 01:18:17;;;;;;;19.58;11.65;;;;;;;13.07;100.00;97294.06;5116638;28;20082;-95
2022/11/18 01:20:43;;;;;;;19.92;11.45;;;;;;;13.12;100.00;97299.13;5123678;28;20111;-94
2022/11/18 01:23:09;;;;;;;16.35;10.90;;;;;;;13.21;100.00;97311.91;5122990;28;20048;-94
2022/11/18 01:25:36;;;;;;;18.95;11.65;;;;;;;13.03;100.00;97268.50;5124119;28;20417;-94
2022/11/18 01:28:02;;;;;;;18.70;11.45;;;;;;;13.06;100.00;97272.81;5123169;28;20058;-94
2022/11/18 01:30:29;;;;;;;21.65;11.93;;;;;;;13.14;100.00;97294.53;5123110;28;20070;-95
2022/11/18 01:32:57;;;;;;;16.50;10.77;;;;;;;13.07;100.00;97277.19;5123744;28;20065;-94
2022/11/18 01:35:23;;;;;;;17.55;11.65;;;;;;;13.10;100.00;97274.34;5112987;28;20040;-95
2022/11/18 01:37:49;;;;;;;18.60;11.05;;;;;;;13.13;100.00;97285.69;5123434;28;20093;-94
2022/11/18 01:40:15;;;;;;;16.52;11.50;;;;;;;13.08;100.00;97258.44;5123430;28;20390;-95
2022/11/18 01:42:42;;;;;;;17.02;10.90;;;;;;;13.14;100.00;97257.16;5111789;28;20051;-94
2022/11/18 01:45:23;;;;;;;20.00;11.13;;;;;;;13.18;100.00;97266.72;5106809;28;20043;-95
2022/11/18 01:47:58;;;;;;;18.13;10.88;;;;;;;13.12;100.00;97256.44;5106605;28;20482;-94
2022/11/18 01:50:27;;;;;;;16.52;10.75;;;;;;;13.12;100.00;97246.63;5105955;28;20043;-95
2022/11/18 01:52:58;;;;;;;19.10;10.85;;;;;;;13.12;100.00;97238.59;5106493;28;20047;-95
2022/11/18 01:55:28;;;;;;;16.02;10.52;;;;;;;13.32;100.00;97252.56;5106323;28;20082;-95
2022/11/18 01:58:01;;;;;;;15.95;9.95;;;;;;;13.18;100.00;97210.66;5106305;28;20075;-94
2022/11/18 02:00:27;;;;;;;16.80;9.43;;;;;;;13.20;100.00;97213.25;5106249;28;20040;-94
2022/11/18 02:02:54;;;;;;;15.88;9.77;;;;;;;13.21;100.00;97207.81;5106095;28;20051;-94
2022/11/18 02:05:21;;;;;;;15.50;10.10;;;;;;;13.22;100.00;97216.66;5122434;28;20040;-94
2022/11/18 02:07:49;;;;;;;17.67;10.30;;;;;;;13.18;100.00;97208.00;5122031;28;20048;-94
2022/11/18 02:10:19;;;;;;;13.10;9.02;;;;;;;13.23;100.00;97200.56;5110781;28;20448;-93
2022/11/18 02:12:46;;;;;;;18.50;9.88;;;;;;;13.33;100.00;97216.88;5108741;28;20040;-95
2022/11/18 02:15:11;;;;;;;13.55;9.48;;;;;;;13.42;100.00;97247.47;5104203;28;20131;-94
2022/11/18 02:17:47;;;;;;;15.35;9.18;;;;;;;13.38;100.00;97240.63;5101935;28;20135;-94
2022/11/18 02:20:35;;;;;;;12.70;8.85;;;;;;;13.42;100.00;97218.97;5108968;28;20043;-94
2022/11/18 02:23:36;;;;;;;13.83;9.17;;;;;;;13.29;100.00;97183.31;5113248;28;20097;-94
2022/11/18 02:26:32;;;;;;;11.80;8.50;;;;;;;13.30;100.00;97163.69;4992195;28;20054;-94
2022/11/18 02:29:06;;;;;;;12.20;8.32;;;;;;;13.31;100.00;97162.72;4979275;28;20416;-93
2022/11/18 02:31:37;;;;;;;13.82;8.02;;;;;;;13.42;100.00;97175.41;4988731;28;20023;-93
2022/11/18 02:34:12;;;;;;;13.80;9.48;;;;;;;13.29;100.00;97162.84;4995697;28;20080;-95
2022/11/18 02:36:42;;;;;;;15.18;8.85;;;;;;;13.26;100.00;97165.66;4989192;28;20053;-94
2022/11/18 02:39:13;;;;;;;14.80;9.05;;;;;;;13.35;100.00;97170.44;4991389;28;20495;-94
2022/11/18 02:41:41;;;;;;;13.73;9.00;;;;;;;13.30;100.00;97148.53;4999581;28;20038;-94
2022/11/18 02:44:12;;;;;;;11.50;8.00;;;;;;;13.47;100.00;97186.66;4995298;28;20412;-94
2022/11/18 02:46:41;;;;;;;13.20;7.15;;;;;;;13.32;100.00;97180.47;5005329;28;20048;-95
2022/11/18 02:49:12;;;;;;;9.45;6.20;;;;;;;13.16;100.00;97167.19;4999053;28;20551;-94
2022/11/18 02:51:40;;;;;;;11.75;6.53;;;;;;;13.18;100.00;97172.44;4991591;28;20038;-94
2022/11/18 02:54:09;;;;;;;9.07;6.40;;;;;;;13.08;100.00;97154.34;5005720;28;20042;-95
2022/11/18 02:56:35;;;;;;;11.00;6.75;;;;;;;13.02;100.00;97148.53;4990337;28;20084;-94
2022/11/18 02:59:02;;;;;;;9.32;6.70;;;;;;;12.97;100.00;97154.16;4995023;28;20046;-94
2022/11/18 03:01:33;;;;;;;10.60;5.85;;;;;;;13.02;100.00;97175.22;5006466;28;20050;-93
2022/11/18 03:03:59;;;;;;;7.22;4.68;;;;;;;12.97;100.00;97172.84;5091053;28;20063;-95
2022/11/18 03:06:29;;;;;;;7.07;4.50;;;;;;;12.75;100.00;97151.94;5095340;28;20093;-94
2022/11/18 03:09:08;;;;;;;6.82;3.60;;;;;;;12.71;100.00;97171.78;5078428;28;20066;-95
2022/11/18 03:11:38;;;;;;;;;;;;;;;12.77;100.00;97170.53;5090358;28;20048;-95
2022/11/18 03:14:19;;;;;;;5.25;3.10;;;;;;;12.50;100.00;97137.47;5077604;28;19928;-94
2022/11/18 03:16:59;;;;;;;6.43;2.45;;;;;;;12.46;100.00;97151.94;5057679;28;20056;-93
2022/11/18 03:19:34;;;;;;;5.47;2.70;;;;;;;12.17;100.00;97135.03;5065847;28;20079;-95
2022/11/18 03:22:08;;;;;;;4.60;2.70;;;;;;;12.08;100.00;97141.78;5066173;28;20041;-93
2022/11/18 03:24:36;;;;;;;4.55;2.30;;;;;;;11.97;100.00;97138.91;5065349;28;20033;-93
2022/11/18 03:27:10;;;;;;;4.43;2.70;;;;;;;11.86;100.00;97135.94;5065643;28;20088;-94
2022/11/18 03:29:43;;;;;;;7.15;2.40;;;;;;;11.81;100.00;97162.00;5065619;28;20049;-94
2022/11/18 03:32:15;;;;;;;5.80;2.92;;;;;;;11.57;100.00;97137.63;5065629;28;20525;-94
2022/11/18 03:34:45;;;;;;;4.00;2.20;;;;;;;11.55;100.00;97156.34;5065924;28;20041;-94
2022/11/18 03:37:15;;;;;;;3.47;2.10;;;;;;;11.39;100.00;97143.06;5064528;28;20055;-94
2022/11/18 03:39:48;;;;;;;3.63;2.20;;;;;;;11.16;100.00;97131.03;5065435;28;20045;-95
2022/11/18 03:42:31;;;;;;;3.95;2.10;;;;;;;11.08;100.00;97131.47;5064774;28;20084;-95
2022/11/18 03:45:02;;;;;;;3.35;2.10;;;;;;;11.03;100.00;97136.19;5064285;28;20048;-93
2022/11/18 03:47:33;;;;;;;2.83;2.00;;;;;;;11.14;100.00;97188.78;5063873;28;20055;-93
2022/11/18 03:50:03;;;;;;;2.70;1.95;;;;;;;10.95;100.00;97175.66;5063141;28;20106;-93
2022/11/18 03:52:32;;;;;;;2.97;1.80;;;;;;;10.87;100.00;97148.63;5063518;28;20041;-94
2022/11/18 03:55:04;;;;;;;4.38;1.90;;;;;;;10.89;100.00;97154.72;5065227;28;20037;-95
2022/11/18 03:57:36;;;;;;;3.65;1.80;;;;;;;11.07;100.00;97190.94;5064625;28;20053;-95
2022/11/18 04:00:06;;;;;;;3.08;1.83;;;;;;;10.92;100.00;97157.19;5064321;28;20041;-94
2022/11/18 04:02:34;;;;;;;3.38;2.10;;;;;;;11.04;100.00;97188.44;5065791;28;20072;-93
2022/11/18 04:05:02;;;;;;;2.92;1.90;;;;;;;10.97;100.00;97165.75;5063485;28;20069;-95
2022/11/18 04:07:33;;;;;;;3.35;1.80;;;;;;;11.20;100.00;97147.69;5064985;28;20045;-94
2022/11/18 04:10:05;;;;;;;4.32;2.13;;;;;;;11.47;100.00;97172.78;5065748;28;20080;-95
2022/11/18 04:12:37;;;;;;;7.47;2.13;;;;;;;11.52;100.00;97170.69;5063641;28;20512;-95
2022/11/18 04:15:03;;;;;;;3.88;2.55;;;;;;;11.40;100.00;97133.28;5064844;28;20053;-95
2022/11/18 04:17:29;;;;;;;3.30;2.20;;;;;;;11.46;100.00;97132.94;5064119;28;20045;-95
2022/11/18 04:19:57;;;;;;;4.05;2.15;;;;;;;11.58;100.00;97150.88;5066056;28;20045;-94
2022/11/18 04:22:23;;;;;;;4.13;2.20;;;;;;;11.56;100.00;97128.81;5066307;28;20117;-93
2022/11/18 04:24:49;;;;;;;5.07;2.05;;;;;;;11.76;100.00;97142.78;5066541;28;20135;-94
2022/11/18 04:27:15;;;;;;;5.15;2.20;;;;;;;11.69;100.00;97135.13;5065654;28;20044;-94
2022/11/18 04:29:44;;;;;;;3.65;2.28;;;;;;;11.73;100.00;97130.47;5065953;28;20052;-94
2022/11/18 04:32:10;;;;;;;3.63;2.10;;;;;;;11.77;100.00;97131.16;5065801;28;20049;-95
2022/11/18 04:34:36;;;;;;;3.55;2.25;;;;;;;11.86;100.00;97138.59;5065602;28;20092;-96
2022/11/18 04:37:04;;;;;;;3.20;2.30;;;;;;;12.12;100.00;97169.06;5065650;28;20418;-94
2022/11/18 04:39:30;;;;;;;4.32;2.35;;;;;;;12.03;100.00;97146.50;5066005;28;20132;-95
2022/11/18 04:41:56;;;;;;;3.83;2.53;;;;;;;12.02;100.00;97125.31;5066644;28;20049;-94
2022/11/18 04:44:23;;;;;;;6.43;2.88;;;;;;;12.04;100.00;97120.75;5066291;28;20045;-95
2022/11/18 04:46:49;;;;;;;4.53;2.63;;;;;;;12.24;100.00;97135.53;5064743;28;20045;-94
2022/11/18 04:49:16;;;;;;;5.03;2.40;;;;;;;12.17;100.00;97118.19;5065652;28;20049;-93
2022/11/18 04:51:43;;;;;;;4.72;2.42;;;;;;;12.19;100.00;97108.28;5066569;28;20091;-94
2022/11/18 04:54:11;;;;;;;5.40;2.47;;;;;;;12.31;100.00;97127.06;5066409;28;20108;-93
2022/11/18 04:56:38;;;;;;;5.75;2.85;;;;;;;12.33;100.00;97130.50;5066316;28;20136;-94
2022/11/18 04:59:04;;;;;;;4.90;2.70;;;;;;;12.33;100.00;97140.31;5065085;28;20041;-93
2022/11/18 05:01:30;;;;;;;4.65;2.80;;;;;;;12.47;100.00;97160.78;5065045;28;20052;-95
2022/11/18 05:03:58;;;;;;;3.47;2.50;;;;;;;12.29;100.00;97133.44;5065487;28;20448;-95
2022/11/18 05:06:24;;;;;;;5.88;3.08;;;;;;;12.38;100.00;97140.88;5064234;28;20052;-95
2022/11/18 05:08:50;;;;;;;6.30;2.42;;;;;;;12.27;100.00;97138.00;5065068;28;20053;-94
2022/11/18 05:14:21;;;;;;;6.30;2.50;;;;;;;12.45;100.00;97174.22;5186731;27;20434;-96
2022/11/18 05:16:47;;;;;;;3.90;2.70;;;;;;;12.30;100.00;97153.81;5147593;27;20564;-95
2022/11/18 05:19:13;;;;;;;4.97;2.45;;;;;;;12.32;100.00;97146.59;5148108;27;20110;-95
2022/11/18 05:21:39;;;;;;;6.10;3.33;;;;;;;12.30;100.00;97145.81;5147746;27;20054;-94
2022/11/18 05:24:13;;;;;;;6.68;4.13;;;;;;;12.26;100.00;97149.63;5147938;27;20043;-95
2022/11/18 05:26:41;;;;;;;10.27;5.70;;;;;;;12.16;100.00;97148.44;5148322;27;20549;-95
2022/11/18 05:29:07;;;;;;;7.35;5.00;;;;;;;12.15;100.00;97152.06;5147347;27;20047;-94
2022/11/18 05:31:35;;;;;;;8.55;5.05;;;;;;;12.21;100.00;97163.22;5148339;27;20055;-96
2022/11/18 05:34:01;;;;;;;6.88;4.35;;;;;;;12.18;100.00;97166.06;5148476;27;20051;-94
2022/11/18 05:36:27;;;;;;;9.10;4.45;;;;;;;12.14;100.00;97164.50;5148639;27;20116;-96
2022/11/18 05:38:57;;;;;;;7.68;3.28;;;;;;;12.20;100.00;97158.84;5148149;27;20043;-96
2022/11/18 05:44:20;;;;;;;12.40;3.40;;;;;;;12.40;100.00;97156.78;5104558;27;20382;-95
2022/11/18 05:46:46;;;;;;;7.18;3.40;;;;;;;12.28;100.00;97145.91;5103718;28;20111;-95
2022/11/18 05:49:12;;;;;;;6.60;3.53;;;;;;;12.28;100.00;97139.72;5104060;28;20044;-95
2022/11/18 05:51:38;;;;;;;10.23;3.13;;;;;;;12.28;100.00;97142.41;5103411;28;20226;-96
2022/11/18 05:54:07;;;;;;;9.52;3.08;;;;;;;12.27;100.00;97138.88;5104117;28;20045;-95
2022/11/18 05:56:37;;;;;;;4.55;2.90;;;;;;;12.34;100.00;97147.38;5103812;28;20090;-95
2022/11/18 05:59:02;;;;;;;;;;;;;;;12.53;100.00;97173.75;5104655;28;20048;-96
2022/11/18 06:01:37;;;;;;;5.63;3.00;;;;;;;12.31;100.00;97143.03;5103728;28;19969;-96
2022/11/18 06:04:09;;;;;;;7.38;2.80;;;;;;;12.32;100.00;97133.28;5102988;28;20044;-95
2022/11/18 06:06:36;;;;;;;6.95;3.13;;;;;;;12.32;100.00;97136.78;5103037;28;20048;-94
2022/11/18 06:09:04;;;;;;;6.18;2.90;;;;;;;12.27;100.00;97140.66;5102104;28;20569;-96
2022/11/18 06:11:32;;;;;;;8.18;3.60;;;;;;;12.37;100.00;97133.84;5100922;28;20164;-95
2022/11/18 06:14:02;;;;;;;6.13;3.33;;;;;;;12.54;100.00;97148.81;5101278;28;20092;-94
2022/11/18 06:16:33;;;;;;;6.32;3.75;;;;;;;12.44;100.00;97137.84;5102679;28;20285;-96
2022/11/18 06:19:01;;;;;;;7.85;3.80;;;;;;;12.59;100.00;97143.19;5100782;28;20056;-96
2022/11/18 06:21:27;;;;;;;8.03;3.90;;;;;;;12.53;100.00;97139.97;5103321;28;20494;-96
2022/11/18 06:23:54;;;;;;;7.30;3.70;;;;;;;12.50;100.00;97148.13;5102746;28;20509;-94
2022/11/18 06:26:21;;;;;;;12.10;3.70;;;;;;;12.44;100.00;97132.50;5103183;28;20044;-96
2022/11/18 06:28:48;;;;;;;6.90;3.50;;;;;;;12.38;100.00;97126.69;5105621;28;20040;-96
2022/11/18 06:31:15;;;;;;;7.90;4.20;;;;;;;12.57;100.00;97161.09;5103078;28;20049;-96
2022/11/18 06:33:43;;;;;;;9.40;5.20;;;;;;;12.39;100.00;97133.75;5098403;28;20055;-96
2022/11/18 06:36:09;;;;;;;10.32;4.90;;;;;;;12.28;100.00;97140.59;5097143;28;20052;-95
2022/11/18 06:38:35;;;;;;;12.60;6.22;;;;;;;12.25;100.00;97137.22;5097510;28;20087;-95
2022/11/18 06:41:01;;;;;;;9.38;6.20;;;;;;;12.40;100.00;97170.09;5096955;28;20084;-95
2022/11/18 06:49:24;;;;;;;7.35;4.10;;;;;;;12.12;100.00;97132.66;5100651;27;20374;-96
2022/11/18 06:51:51;;;;;;;6.50;3.78;;;;;;;12.10;100.00;97131.88;5101390;28;20116;-95
2022/11/18 06:54:17;;;;;;;6.15;4.00;;;;;;;12.09;100.00;97129.31;5104057;28;20230;-95
2022/11/18 06:56:44;;;;;;;7.50;3.40;;;;;;;12.24;100.00;97152.38;5105533;28;20040;-96
2022/11/18 06:59:10;;;;;;;12.23;3.83;;;;;;;12.10;100.00;97133.66;5103789;28;20045;-95
2022/11/18 07:01:38;;;;;;;8.52;3.45;;;;;;;12.27;100.00;97146.88;5103655;28;20103;-96
2022/11/18 07:04:04;;;;;;;9.00;3.90;;;;;;;12.32;100.00;97133.28;5120731;28;20068;-95
2022/11/18 07:06:34;;;;;;;7.72;3.80;;;;;;;12.39;100.00;97128.44;5102187;28;20041;-95
2022/11/18 07:09:01;;;;;;;9.25;4.28;;;;;;;12.53;100.00;97129.31;5101173;28;20090;-95
2022/11/18 07:11:28;;;;;;;9.85;4.53;;;;;;;12.60;100.00;97120.91;5100130;28;20079;-95
2022/11/18 07:13:54;;;;;;;9.20;4.45;;;;;;;12.69;100.00;97131.03;5095864;28;20115;-95
2022/11/18 07:16:22;;;;;;;7.05;4.32;;;;;;;12.68;100.00;97124.81;5112299;28;20135;-96
2022/11/18 07:18:49;;;;;;;7.82;4.57;;;;;;;12.77;100.00;97135.88;5112577;28;20052;-95
2022/11/18 07:21:17;;;;;;;11.13;4.70;;;;;;;12.77;100.00;97144.72;5093673;28;20032;-95
2022/11/18 07:23:45;;;;;;;11.15;5.47;;;;;;;12.79;100.00;97145.47;5095055;28;20528;-95
2022/11/18 07:26:12;;;;;;;12.02;7.05;;;;;;;12.97;100.00;97178.19;5096646;28;20058;-96
2022/11/18 07:28:38;;;;;;;11.50;7.85;;;;;;;12.91;100.00;97157.22;5095605;28;20135;-96
2022/11/18 07:31:06;;;;;;;13.07;8.07;;;;;;;12.92;100.00;97149.13;5113855;28;20067;-96
2022/11/18 07:33:33;;;;;;;17.33;8.98;;;;;;;13.09;100.00;97166.72;5098164;28;20044;-96
2022/11/18 07:36:01;;;;;;;15.57;8.90;;;;;;;13.15;100.00;97160.16;5100216;28;20071;-96
2022/11/18 07:38:27;;;;;;;14.02;9.00;;;;;;;13.13;100.00;97157.56;5096509;28;20135;-96
2022/11/18 07:40:54;;;;;;;13.32;7.72;;;;;;;13.21;100.00;97170.44;5096039;28;20524;-96
2022/11/18 07:43:21;;;;;;;12.55;6.18;;;;;;;13.38;100.00;97197.91;5098856;28;20094;-96
2022/11/18 07:45:46;;;;;;;10.52;6.15;;;;;;;13.26;100.00;97167.47;5098010;28;20395;-96
2022/11/18 07:48:12;;;;;;;9.82;6.72;;;;;;;13.37;100.00;97185.53;5099432;28;20102;-95
2022/11/18 07:50:38;;;;;;;11.63;6.68;;;;;;;13.39;100.00;97189.81;5115006;28;20041;-96
2022/11/18 07:53:04;;;;;;;13.63;6.57;;;;;;;13.41;100.00;97189.72;5097959;28;20063;-96
2022/11/18 07:55:30;;;;;;;12.15;5.80;;;;;;;13.49;100.00;97195.44;5097459;28;20048;-95
2022/11/18 07:57:57;;;;;;;8.55;5.60;;;;;;;13.44;100.00;97178.81;5097264;28;20043;-96
2022/11/18 08:00:23;;;;;;;11.63;6.40;;;;;;;13.51;100.00;97178.34;5085569;28;20040;-94
2022/11/18 08:02:50;;;;;;;15.20;7.80;;;;;;;13.73;100.00;97207.19;5101341;28;20045;-96
2022/11/18 08:05:16;;;;;;;12.80;5.90;;;;;;;13.71;100.00;97182.38;5083008;28;20087;-95
2022/11/18 08:07:42;;;;;;;7.82;5.40;;;;;;;13.85;100.00;97186.81;5082080;28;20045;-96
2022/11/18 08:10:08;;;;;;;14.05;5.75;;;;;;;13.92;100.00;97184.59;5083393;28;20049;-96
2022/11/18 08:12:34;;;;;;;13.32;5.10;;;;;;;14.00;100.00;97182.28;5083521;28;20052;-95
2022/11/18 08:15:02;;;;;;;10.52;5.47;;;;;;;14.15;100.00;97213.34;5085280;28;20048;-95
2022/11/18 08:17:28;;;;;;;13.15;8.23;;;;;;;14.14;100.00;97208.97;5084819;28;20461;-95
2022/11/18 08:19:54;;;;;;;19.83;12.52;;;;;;;13.86;100.00;97191.22;5064822;28;20045;-95
2022/11/18 08:22:20;;;;;;;15.73;11.32;;;;;;;13.85;100.00;97184.16;5065275;28;20071;-96
2022/11/18 08:24:46;;;;;;;35.25;23.45;;;;;;;13.75;100.00;97186.56;5064562;28;20083;-96
2022/11/18 08:27:12;;;;;;;24.02;16.30;;;;;;;13.75;100.00;97201.75;5067047;28;20136;-96
2022/11/18 08:29:39;;;;;;;16.40;10.68;;;;;;;13.65;100.00;97196.13;5067759;28;20056;-96
2022/11/18 08:32:06;;;;;;;13.70;8.75;;;;;;;13.58;100.00;97194.81;5067309;28;20052;-96
2022/11/18 08:34:32;;;;;;;10.90;8.13;;;;;;;13.55;100.00;97197.69;5066227;28;20048;-96
2022/11/18 08:36:58;;;;;;;19.13;10.07;;;;;;;13.62;100.00;97196.34;5067627;28;20045;-95
2022/11/18 08:39:25;;;;;;;16.92;10.10;;;;;;;13.72;100.00;97236.66;5071539;28;20049;-96
2022/11/18 08:41:51;;;;;;;19.35;10.25;;;;;;;13.61;100.00;97205.31;5068191;28;20048;-96
2022/11/18 08:44:18;;;;;;;11.02;7.47;;;;;;;13.66;100.00;97208.56;5066750;28;20151;-95
2022/11/18 08:46:44;;;;;;;22.63;10.25;;;;;;;13.98;100.00;97238.50;5065267;28;20111;-95
2022/11/18 08:49:15;;;;;;;12.60;6.38;;;;;;;14.05;100.00;97243.44;5064956;28;20160;-96
2022/11/18 08:51:42;;;;;;;11.77;7.00;;;;;;;13.95;100.00;97225.34;5066718;28;20113;-95
2022/11/18 08:54:08;;;;;;;9.20;3.88;;;;;;;13.86;100.00;97214.41;5064460;28;20049;-95
2022/11/18 08:56:34;;;;;;;5.95;3.00;;;;;;;14.06;100.00;97208.59;5065026;28;20044;-95
2022/11/18 08:59:00;;;;;;;7.20;3.60;;;;;;;14.32;100.00;97230.09;5077989;28;20047;-95
2022/11/18 09:01:26;;;;;;;6.65;3.63;;;;;;;14.40;100.00;97219.75;5083104;28;20040;-95
2022/11/18 09:03:56;;;;;;;8.80;5.00;;;;;;;14.74;100.00;97254.91;5085627;28;20055;-96
2022/11/18 09:06:25;;;;;;;12.05;6.72;;;;;;;14.67;100.00;97250.94;5091255;28;20047;-95
2022/11/18 09:09:00;;;;;;;10.45;7.40;;;;;;;14.62;100.00;97255.78;5092884;28;20149;-96
2022/11/18 09:11:39;;;;;;;13.32;7.18;;;;;;;14.57;100.00;97264.06;5095086;28;20040;-96
2022/11/18 09:14:07;;;;;;;11.27;7.22;;;;;;;14.32;100.00;97224.75;5094391;28;20052;-96
2022/11/18 09:16:39;;;;;;;14.40;8.00;;;;;;;14.24;100.00;97229.72;5103218;28;20139;-96
2022/11/18 09:19:05;;;;;;;15.07;7.90;;;;;;;14.16;100.00;97241.78;5101644;28;20092;-96
2022/11/18 09:21:33;;;;;;;13.68;7.82;;;;;;;14.14;100.00;97257.09;5084093;28;20060;-96
2022/11/18 09:24:09;;;;;;;14.65;8.70;;;;;;;13.99;100.00;97236.72;5083865;28;20041;-94
2022/11/18 09:26:36;;;;;;;16.73;9.05;;;;;;;13.90;100.00;97226.59;5086208;28;20040;-93
2022/11/18 09:29:02;;;;;;;18.23;9.60;;;;;;;14.09;100.00;97234.28;5082924;28;20083;-95
2022/11/18 09:31:28;;;;;;;11.38;7.15;;;;;;;14.30;100.00;97229.31;5082260;28;20048;-96
2022/11/18 09:33:54;;;;;;;6.65;3.60;;;;;;;14.36;100.00;97244.97;5082793;28;20449;-96
2022/11/18 09:36:22;;;;;;;7.45;3.85;;;;;;;14.36;100.00;97247.63;5098135;28;20048;-95
2022/11/18 09:38:50;;;;;;;10.63;5.00;;;;;;;14.38;100.00;97269.78;5097895;28;20051;-96
2022/11/18 09:41:35;;;;;;;9.90;3.00;;;;;;;14.52;100.00;97261.69;5099300;28;20044;-96
2022/11/18 09:44:13;;;;;;;6.97;2.40;;;;;;;14.55;100.00;97244.59;5080995;28;20406;-96
2022/11/18 09:46:50;;;;;;;4.90;2.40;;;;;;;14.76;100.00;97261.88;5097415;28;20045;-96
2022/11/18 09:49:24;;;;;;;6.72;2.47;;;;;;;15.04;100.00;97259.97;5080380;28;20044;-95
2022/11/18 09:51:51;;;;;;;4.38;2.10;;;;;;;15.13;93.13;97263.84;5061612;28;20041;-95
2022/11/18 09:54:20;;;;;;;4.05;2.28;;;;;;;15.32;89.92;97285.69;5057725;28;20052;-96
2022/11/18 09:56:47;;;;;;;4.90;2.40;;;;;;;15.34;88.53;97270.38;5093391;28;20049;-94
2022/11/18 09:59:14;;;;;;;5.85;2.30;;;;;;;15.37;92.91;97264.78;5077240;28;20036;-94
2022/11/18 10:01:41;;;;;;;4.78;2.00;;;;;;;15.51;90.39;97271.00;5081007;28;20045;-96
2022/11/18 10:04:13;;;;;;;4.25;2.22;;;;;;;15.51;89.64;97260.31;5079496;28;20049;-93
2022/11/18 10:06:39;;;;;;;6.00;2.15;;;;;;;15.40;86.68;97259.22;5081281;28;20116;-96
2022/11/18 10:09:20;;;;;;;4.30;1.85;;;;;;;15.40;84.48;97248.50;5098153;28;20040;-94
2022/11/18 10:11:57;;;;;;;5.13;1.83;;;;;;;15.87;83.21;97256.81;5098399;28;20064;-95
2022/11/18 10:14:38;;;;;;;4.35;1.60;;;;;;;16.01;79.31;97253.97;5082184;28;20138;-95
2022/11/18 10:17:20;;;;;;;5.88;1.80;;;;;;;16.09;80.44;97255.22;5082696;28;20143;-96
2022/11/18 10:19:54;;;;;;;5.53;2.00;;;;;;;16.21;78.22;97255.19;5079556;28;20072;-95
2022/11/18 10:22:25;;;;;;;5.00;2.00;;;;;;;16.25;80.38;97260.34;5078124;28;20056;-95
2022/11/18 10:24:52;;;;;;;3.70;1.80;;;;;;;16.26;76.59;97254.00;5076934;28;20044;-94
2022/11/18 10:27:21;;;;;;;6.80;2.22;;;;;;;16.24;76.06;97262.13;5079561;28;20076;-94
2022/11/18 10:29:52;;;;;;;6.43;1.58;;;;;;;16.17;78.54;97245.66;5080482;28;20053;-96
2022/11/18 10:32:19;;;;;;;4.35;1.80;;;;;;;16.10;77.18;97257.81;5077693;28;20053;-95
2022/11/18 10:34:47;;;;;;;9.52;2.15;;;;;;;16.08;74.46;97248.16;5080568;28;20375;-93
2022/11/18 10:37:29;;;;;;;4.75;1.60;;;;;;;16.10;72.25;97267.69;5077647;28;20042;-95
2022/11/18 10:40:00;;;;;;;6.47;2.10;;;;;;;16.15;73.66;97271.72;5075971;28;20078;-96
2022/11/18 10:42:33;;;;;;;4.82;1.80;;;;;;;16.12;72.42;97271.97;5058854;28;20049;-94
2022/11/18 10:45:15;;;;;;;4.85;1.70;;;;;;;16.06;73.73;97248.28;5089310;28;20056;-95
2022/11/18 10:47:40;;;;;;;4.15;1.60;;;;;;;16.11;73.38;97262.22;5080129;28;20520;-95
2022/11/18 10:50:29;;;;;;;4.70;1.83;;;;;;;16.08;70.88;97254.38;5079644;28;20068;-94
2022/11/18 10:52:54;;;;;;;8.20;1.90;;;;;;;16.13;69.04;97243.31;5079047;28;20044;-95
2022/11/18 10:55:22;;;;;;;5.15;1.65;;;;;;;16.22;71.22;97243.50;5074554;28;20055;-92
2022/11/18 10:57:54;;;;;;;7.22;2.00;;;;;;;16.35;73.13;97254.19;5074770;28;20041;-94
2022/11/18 11:00:44;;;;;;;5.55;1.90;;;;;;;16.37;73.08;97248.69;5091285;28;20048;-94
2022/11/18 11:03:37;;;;;;;7.20;1.90;;;;;;;16.49;68.94;97255.81;5074797;28;20056;-93
2022/11/18 11:06:32;;;;;;;5.30;1.83;;;;;;;16.42;68.30;97257.25;5075072;28;20075;-95
2022/11/18 11:09:07;;;;;;;4.25;1.65;;;;;;;16.42;68.59;97241.16;5076242;28;20285;-95
2022/11/18 11:11:34;;;;;;;4.22;1.55;;;;;;;16.52;65.99;97258.25;5077558;28;20060;-95
2022/11/18 11:14:18;;;;;;;6.50;2.70;;;;;;;16.43;68.89;97237.50;5091623;28;20406;-94
2022/11/18 11:17:01;;;;;;;5.18;1.80;;;;;;;16.52;66.53;97233.25;5072228;28;20041;-96
2022/11/18 11:19:38;;;;;;;5.13;1.63;;;;;;;16.47;66.83;97201.41;5092371;28;20493;-95
2022/11/18 11:22:14;;;;;;;5.15;1.90;;;;;;;16.62;66.32;97235.13;5097547;28;20064;-96
2022/11/18 11:24:40;;;;;;;7.30;1.85;;;;;;;16.46;64.77;97205.06;5081084;28;20497;-94
2022/11/18 11:27:34;;;;;;;7.20;2.03;;;;;;;16.65;63.23;97242.09;5081876;28;20045;-96
2022/11/18 11:30:11;;;;;;;6.20;1.60;;;;;;;16.57;60.42;97215.00;5065762;28;20503;-95
2022/11/18 11:33:01;;;;;;;6.70;2.10;;;;;;;16.68;59.59;97227.59;5082019;28;20044;-96
2022/11/18 11:35:33;;;;;;;6.35;2.28;;;;;;;16.62;59.17;97227.06;5081920;28;20565;-96
2022/11/18 11:38:03;;;;;;;6.22;2.40;;;;;;;16.61;58.35;97214.63;5083830;28;20048;-95
2022/11/18 11:40:33;;;;;;;7.75;2.33;;;;;;;16.66;60.67;97213.44;5084022;28;20052;-96
2022/11/18 11:43:27;;;;;;;6.43;1.75;;;;;;;16.67;59.18;97215.97;5084592;28;20044;-96
2022/11/18 11:46:19;;;;;;;4.85;1.58;;;;;;;16.79;56.25;97231.16;5084645;28;20079;-94
2022/11/18 11:48:57;;;;;;;7.63;1.60;;;;;;;16.77;56.44;97232.25;5058060;28;20069;-96
2022/11/18 11:51:31;;;;;;;5.75;1.80;;;;;;;16.88;57.47;97245.72;5064312;28;20068;-94